^^
Paulen-Weather Station Historical Data
Daily Summary for July 10, 2022 Units:  Metric    English   Both
Daily Weekly Monthly Yearly Custom
  High: Low: Average:
Temperature: 19 °C 13 °C 15.7 °C
Dew Point: 14 °C 7 °C 8.9 °C
Humidity: 79% 48% 64%
Wind Speed: 33km/h 5km/h 17.6km/h
Wind Gust: 31km/h - -
Wind- - West
Pressure: 1018.29 hPa 1016.46 hPa -
Precipitation: 0 mm    
Historical Graphs
 
 
Tabular Data for July 10, 2022
Time Temperature Dew Point Pressure Wind Wind Speed Wind Gust Humidity Rainfall Rate (Hourly) solar
00:04 13 °C 7 °C 1016.93 hPa WNW 16 km/h 14 km/h 68% 0 mm 0 W/m2
00:09 13 °C 7 °C 1016.97 hPa WNW 16 km/h 14 km/h 68% 0 mm 0 W/m2
00:14 13 °C 7 °C 1017 hPa WNW 13 km/h 10 km/h 68% 0 mm 0 W/m2
00:19 13 °C 7 °C 1016.97 hPa WNW 11 km/h 9 km/h 68% 0 mm 0 W/m2
00:24 13 °C 7 °C 1016.93 hPa WNW 9 km/h 9 km/h 68% 0 mm 0 W/m2
00:29 13 °C 7 °C 1016.9 hPa WNW 12 km/h 9 km/h 68% 0 mm 0 W/m2
00:34 13 °C 7 °C 1016.8 hPa WNW 7 km/h 8 km/h 68% 0 mm 0 W/m2
00:39 13 °C 7 °C 1016.8 hPa WNW 7 km/h 7 km/h 69% 0 mm 0 W/m2
00:44 13 °C 7 °C 1016.76 hPa WNW 8 km/h 7 km/h 69% 0 mm 0 W/m2
00:49 13 °C 7 °C 1016.8 hPa W 7 km/h 6 km/h 70% 0 mm 0 W/m2
00:54 13 °C 7 °C 1016.76 hPa W 8 km/h 9 km/h 70% 0 mm 0 W/m2
00:59 13 °C 7 °C 1016.8 hPa WNW 8 km/h 8 km/h 70% 0 mm 0 W/m2
01:04 13 °C 7 °C 1016.8 hPa WNW 11 km/h 8 km/h 70% 0 mm 0 W/m2
01:09 13 °C 7 °C 1016.76 hPa WNW 10 km/h 10 km/h 70% 0 mm 0 W/m2
01:14 13 °C 7 °C 1016.83 hPa WNW 10 km/h 8 km/h 70% 0 mm 0 W/m2
01:19 13 °C 7 °C 1016.83 hPa NW 8 km/h 7 km/h 70% 0 mm 0 W/m2
01:24 13 °C 7 °C 1016.76 hPa NW 14 km/h 12 km/h 71% 0 mm 0 W/m2
01:29 13 °C 8 °C 1016.83 hPa NW 17 km/h 17 km/h 71% 0 mm 0 W/m2
01:34 13 °C 8 °C 1016.86 hPa NW 19 km/h 17 km/h 71% 0 mm 0 W/m2
01:39 13 °C 8 °C 1016.8 hPa NW 22 km/h 21 km/h 71% 0 mm 0 W/m2
01:44 13 °C 8 °C 1016.76 hPa NW 20 km/h 18 km/h 72% 0 mm 0 W/m2
01:49 13 °C 8 °C 1016.8 hPa NNW 25 km/h 24 km/h 72% 0 mm 0 W/m2
01:54 13 °C 8 °C 1016.83 hPa NNW 24 km/h 22 km/h 72% 0 mm 0 W/m2
01:59 13 °C 8 °C 1016.8 hPa NW 26 km/h 24 km/h 71% 0 mm 0 W/m2
02:04 13 °C 8 °C 1016.76 hPa NW 28 km/h 24 km/h 72% 0 mm 0 W/m2
02:09 13 °C 8 °C 1016.73 hPa NNW 27 km/h 21 km/h 72% 0 mm 0 W/m2
02:14 13 °C 8 °C 1016.7 hPa NNW 24 km/h 21 km/h 72% 0 mm 0 W/m2
02:19 13 °C 8 °C 1016.7 hPa NNW 27 km/h 23 km/h 72% 0 mm 0 W/m2
02:24 13 °C 8 °C 1016.66 hPa NNW 24 km/h 21 km/h 72% 0 mm 0 W/m2
02:29 13 °C 8 °C 1016.66 hPa NNW 27 km/h 23 km/h 72% 0 mm 0 W/m2
02:34 13 °C 8 °C 1016.66 hPa NNW 30 km/h 27 km/h 71% 0 mm 0 W/m2
02:39 13 °C 8 °C 1016.59 hPa NNW 27 km/h 24 km/h 71% 0 mm 0 W/m2
02:44 13 °C 8 °C 1016.56 hPa NNW 29 km/h 24 km/h 72% 0 mm 0 W/m2
02:49 13 °C 8 °C 1016.53 hPa NNW 29 km/h 28 km/h 71% 0 mm 0 W/m2
02:54 13 °C 8 °C 1016.49 hPa NNW 28 km/h 27 km/h 72% 0 mm 0 W/m2
02:59 13 °C 8 °C 1016.49 hPa NNW 26 km/h 22 km/h 72% 0 mm 0 W/m2
03:04 13 °C 8 °C 1016.53 hPa NNW 25 km/h 24 km/h 72% 0 mm 0 W/m2
03:09 13 °C 8 °C 1016.53 hPa NNW 29 km/h 25 km/h 71% 0 mm 0 W/m2
03:14 13 °C 8 °C 1016.53 hPa NNW 28 km/h 27 km/h 72% 0 mm 0 W/m2
03:19 13 °C 8 °C 1016.46 hPa NNW 31 km/h 27 km/h 72% 0 mm 0 W/m2
03:24 13 °C 8 °C 1016.46 hPa NW 31 km/h 28 km/h 72% 0 mm 0 W/m2
03:29 13 °C 8 °C 1016.46 hPa NW 33 km/h 30 km/h 71% 0 mm 0 W/m2
03:34 13 °C 8 °C 1016.53 hPa NNW 31 km/h 28 km/h 71% 0 mm 0 W/m2
03:39 13 °C 8 °C 1016.56 hPa NW 33 km/h 31 km/h 71% 0 mm 0 W/m2
03:44 13 °C 8 °C 1016.56 hPa NNW 30 km/h 26 km/h 71% 0 mm 0 W/m2
03:49 13 °C 8 °C 1016.53 hPa NNW 27 km/h 23 km/h 72% 0 mm 0 W/m2
03:54 13 °C 8 °C 1016.53 hPa NNW 26 km/h 22 km/h 72% 0 mm 0 W/m2
03:59 13 °C 8 °C 1016.53 hPa NNW 22 km/h 20 km/h 72% 0 mm 0 W/m2
04:04 13 °C 8 °C 1016.49 hPa NNW 21 km/h 18 km/h 72% 0 mm 0 W/m2
04:09 13 °C 8 °C 1016.59 hPa NNW 21 km/h 19 km/h 72% 0 mm 0 W/m2
04:14 13 °C 8 °C 1016.66 hPa NNW 22 km/h 20 km/h 71% 0 mm 0 W/m2
04:19 13 °C 8 °C 1016.66 hPa NNW 22 km/h 17 km/h 72% 0 mm 0 W/m2
04:24 13 °C 8 °C 1016.66 hPa NNW 23 km/h 22 km/h 72% 0 mm 0 W/m2
04:29 13 °C 8 °C 1016.7 hPa NNW 21 km/h 19 km/h 72% 0 mm 0 W/m2
04:34 13 °C 8 °C 1016.76 hPa NNW 23 km/h 20 km/h 72% 0 mm 0 W/m2
04:39 13 °C 8 °C 1016.76 hPa NNW 26 km/h 21 km/h 72% 0 mm 5 W/m2
04:44 13 °C 8 °C 1016.73 hPa NNW 24 km/h 20 km/h 72% 0 mm 7 W/m2
04:49 13 °C 8 °C 1016.76 hPa NNW 24 km/h 20 km/h 71% 0 mm 11 W/m2
04:54 13 °C 8 °C 1016.76 hPa NNW 20 km/h 17 km/h 72% 0 mm 16 W/m2
04:59 13 °C 8 °C 1016.8 hPa NNW 22 km/h 18 km/h 72% 0 mm 19 W/m2
05:04 13 °C 8 °C 1016.83 hPa NNW 18 km/h 15 km/h 73% 0 mm 23 W/m2
05:09 13 °C 8 °C 1016.8 hPa N 16 km/h 14 km/h 72% 0 mm 28 W/m2
05:14 13 °C 8 °C 1016.86 hPa NNW 18 km/h 15 km/h 71% 0 mm 33 W/m2
05:19 13 °C 8 °C 1016.93 hPa NNW 17 km/h 17 km/h 71% 0 mm 39 W/m2
05:24 13 °C 8 °C 1016.97 hPa NNW 21 km/h 16 km/h 70% 0 mm 46 W/m2
05:29 13 °C 8 °C 1016.97 hPa NNW 22 km/h 20 km/h 69% 0 mm 53 W/m2
05:34 13 °C 8 °C 1016.97 hPa NNW 18 km/h 15 km/h 70% 0 mm 62 W/m2
05:39 13 °C 8 °C 1017 hPa NNW 19 km/h 15 km/h 70% 0 mm 70 W/m2
05:44 13 °C 8 °C 1017.03 hPa NNW 21 km/h 17 km/h 69% 0 mm 77 W/m2
05:49 13 °C 8 °C 1017.07 hPa NNW 21 km/h 16 km/h 69% 0 mm 84 W/m2
05:54 14 °C 8 °C 1017 hPa NNW 21 km/h 15 km/h 69% 0 mm 93 W/m2
05:59 14 °C 8 °C 1017.07 hPa NNW 19 km/h 15 km/h 68% 0 mm 100 W/m2
06:04 14 °C 8 °C 1017.07 hPa NNW 20 km/h 17 km/h 68% 0 mm 107 W/m2
06:09 14 °C 8 °C 1017.07 hPa NNW 19 km/h 16 km/h 68% 0 mm 118 W/m2
06:14 14 °C 8 °C 1017.03 hPa NNW 20 km/h 16 km/h 68% 0 mm 125 W/m2
06:19 14 °C 8 °C 1017.03 hPa NNW 21 km/h 17 km/h 68% 0 mm 134 W/m2
06:24 14 °C 8 °C 1017.07 hPa NNW 19 km/h 17 km/h 67% 0 mm 144 W/m2
06:29 14 °C 8 °C 1017.07 hPa NNW 18 km/h 15 km/h 68% 0 mm 153 W/m2
06:34 14 °C 8 °C 1017.07 hPa NNW 20 km/h 18 km/h 67% 0 mm 162 W/m2
06:39 14 °C 8 °C 1017.14 hPa NNW 18 km/h 16 km/h 66% 0 mm 172 W/m2
06:44 14 °C 8 °C 1017.17 hPa NNW 19 km/h 16 km/h 66% 0 mm 181 W/m2
06:49 14 °C 8 °C 1017.2 hPa NNW 17 km/h 16 km/h 66% 0 mm 190 W/m2
06:54 14 °C 8 °C 1017.27 hPa NNW 19 km/h 17 km/h 66% 0 mm 202 W/m2
06:59 14 °C 8 °C 1017.27 hPa NNW 18 km/h 16 km/h 66% 0 mm 211 W/m2
07:04 14 °C 8 °C 1017.34 hPa NNW 19 km/h 18 km/h 66% 0 mm 221 W/m2
07:09 15 °C 8 °C 1017.34 hPa NNW 18 km/h 15 km/h 66% 0 mm 232 W/m2
07:14 15 °C 9 °C 1017.41 hPa NNW 14 km/h 12 km/h 66% 0 mm 243 W/m2
07:19 15 °C 9 °C 1017.47 hPa NNW 17 km/h 13 km/h 65% 0 mm 253 W/m2
07:24 15 °C 8 °C 1017.47 hPa NNW 15 km/h 12 km/h 64% 0 mm 265 W/m2
07:29 15 °C 8 °C 1017.54 hPa NNW 16 km/h 14 km/h 64% 0 mm 274 W/m2
07:34 15 °C 9 °C 1017.58 hPa NNW 15 km/h 13 km/h 65% 0 mm 285 W/m2
07:39 15 °C 9 °C 1017.58 hPa NNW 17 km/h 15 km/h 64% 0 mm 297 W/m2
07:44 15 °C 9 °C 1017.64 hPa NNW 13 km/h 11 km/h 63% 0 mm 306 W/m2
07:49 15 °C 9 °C 1017.68 hPa NNW 16 km/h 13 km/h 64% 0 mm 316 W/m2
07:54 16 °C 9 °C 1017.68 hPa NNW 13 km/h 11 km/h 63% 0 mm 329 W/m2
07:59 16 °C 9 °C 1017.71 hPa NNW 13 km/h 11 km/h 63% 0 mm 339 W/m2
08:04 16 °C 9 °C 1017.71 hPa NNW 15 km/h 12 km/h 62% 0 mm 348 W/m2
08:09 16 °C 9 °C 1017.71 hPa NNW 13 km/h 11 km/h 62% 0 mm 362 W/m2
08:14 16 °C 9 °C 1017.75 hPa NNW 13 km/h 10 km/h 62% 0 mm 373 W/m2
08:19 16 °C 9 °C 1017.71 hPa NNW 13 km/h 9 km/h 61% 0 mm 381 W/m2
08:24 17 °C 9 °C 1017.71 hPa N 13 km/h 13 km/h 60% 0 mm 394 W/m2
08:29 17 °C 9 °C 1017.75 hPa NNW 13 km/h 12 km/h 60% 0 mm 404 W/m2
08:34 17 °C 9 °C 1017.75 hPa N 12 km/h 13 km/h 59% 0 mm 415 W/m2
08:39 17 °C 9 °C 1017.81 hPa N 17 km/h 17 km/h 59% 0 mm 425 W/m2
08:44 17 °C 9 °C 1017.88 hPa N 18 km/h 16 km/h 59% 0 mm 436 W/m2
08:49 17 °C 9 °C 1017.88 hPa N 16 km/h 15 km/h 59% 0 mm 445 W/m2
08:54 17 °C 9 °C 1017.88 hPa N 16 km/h 13 km/h 58% 0 mm 457 W/m2
08:59 17 °C 9 °C 1017.95 hPa NNW 12 km/h 13 km/h 60% 0 mm 466 W/m2
09:04 17 °C 9 °C 1017.91 hPa N 13 km/h 12 km/h 57% 0 mm 476 W/m2
09:09 17 °C 9 °C 1017.98 hPa N 12 km/h 12 km/h 59% 0 mm 487 W/m2
09:14 17 °C 9 °C 1018.05 hPa N 11 km/h 9 km/h 60% 0 mm 497 W/m2
09:19 17 °C 9 °C 1018.05 hPa N 8 km/h 8 km/h 58% 0 mm 506 W/m2
09:24 18 °C 10 °C 1018.08 hPa N 8 km/h 7 km/h 59% 0 mm 519 W/m2
09:29 18 °C 10 °C 1018.08 hPa N 6 km/h 5 km/h 58% 0 mm 526 W/m2
09:34 18 °C 10 °C 1018.05 hPa NNW 6 km/h 5 km/h 59% 0 mm 536 W/m2
09:39 18 °C 10 °C 1018.08 hPa N 5 km/h 5 km/h 57% 0 mm 547 W/m2
09:44 18 °C 9 °C 1018.08 hPa NNW 6 km/h 5 km/h 55% 0 mm 555 W/m2
09:49 18 °C 9 °C 1018.05 hPa NNW 6 km/h 4 km/h 55% 0 mm 566 W/m2
09:54 19 °C 9 °C 1018.05 hPa N 5 km/h 4 km/h 52% 0 mm 577 W/m2
09:59 19 °C 8 °C 1018.08 hPa NNW 5 km/h 4 km/h 50% 0 mm 584 W/m2
10:04 19 °C 8 °C 1018.08 hPa NNW 6 km/h 5 km/h 48% 0 mm 592 W/m2
10:09 19 °C 8 °C 1018.12 hPa NW 5 km/h 5 km/h 49% 0 mm 603 W/m2
10:14 19 °C 8 °C 1018.12 hPa NNW 6 km/h 5 km/h 50% 0 mm 610 W/m2
10:19 19 °C 8 °C 1018.19 hPa NW 6 km/h 5 km/h 49% 0 mm 619 W/m2
10:24 19 °C 8 °C 1018.22 hPa NNW 5 km/h 4 km/h 49% 0 mm 629 W/m2
10:29 19 °C 9 °C 1018.29 hPa S 7 km/h 7 km/h 51% 0 mm 636 W/m2
10:34 19 °C 9 °C 1018.25 hPa SSE 9 km/h 10 km/h 53% 0 mm 643 W/m2
10:39 18 °C 9 °C 1018.25 hPa S 9 km/h 9 km/h 54% 0 mm 652 W/m2
10:44 18 °C 8 °C 1018.22 hPa SSE 6 km/h 6 km/h 53% 0 mm 657 W/m2
10:49 18 °C 8 °C 1018.12 hPa E 7 km/h 6 km/h 51% 0 mm 666 W/m2
10:54 19 °C 8 °C 1018.08 hPa SSE 10 km/h 10 km/h 51% 0 mm 673 W/m2
10:59 18 °C 9 °C 1018.08 hPa S 12 km/h 10 km/h 53% 0 mm 680 W/m2
11:04 18 °C 9 °C 1018.05 hPa SSE 11 km/h 10 km/h 54% 0 mm 686 W/m2
11:09 18 °C 8 °C 1018.02 hPa SSE 12 km/h 12 km/h 54% 0 mm 694 W/m2
11:14 18 °C 8 °C 1018.02 hPa S 14 km/h 12 km/h 53% 0 mm 698 W/m2
11:19 18 °C 8 °C 1018.02 hPa S 15 km/h 13 km/h 53% 0 mm 705 W/m2
11:24 18 °C 8 °C 1018.05 hPa SSE 15 km/h 13 km/h 53% 0 mm 712 W/m2
11:29 18 °C 8 °C 1018.05 hPa SSE 15 km/h 13 km/h 52% 0 mm 719 W/m2
11:34 18 °C 9 °C 1018.02 hPa S 13 km/h 12 km/h 54% 0 mm 724 W/m2
11:39 18 °C 8 °C 1018.05 hPa SSE 14 km/h 12 km/h 52% 0 mm 733 W/m2
11:44 18 °C 8 °C 1018.02 hPa S 15 km/h 14 km/h 52% 0 mm 742 W/m2
11:49 18 °C 8 °C 1017.98 hPa SSE 17 km/h 14 km/h 51% 0 mm 751 W/m2
11:54 18 °C 8 °C 1017.98 hPa S 17 km/h 14 km/h 51% 0 mm 761 W/m2
11:59 18 °C 8 °C 1017.98 hPa SSE 16 km/h 14 km/h 52% 0 mm 766 W/m2
12:04 18 °C 8 °C 1018.02 hPa S 16 km/h 15 km/h 51% 0 mm 770 W/m2
12:09 18 °C 8 °C 1018.02 hPa S 16 km/h 13 km/h 52% 0 mm 773 W/m2
12:14 18 °C 8 °C 1017.98 hPa S 17 km/h 14 km/h 52% 0 mm 784 W/m2
12:19 18 °C 9 °C 1018.02 hPa S 18 km/h 14 km/h 53% 0 mm 738 W/m2
12:24 18 °C 9 °C 1018.02 hPa S 19 km/h 16 km/h 53% 0 mm 763 W/m2
12:29 18 °C 9 °C 1017.95 hPa S 19 km/h 14 km/h 54% 0 mm 763 W/m2
12:34 18 °C 9 °C 1017.95 hPa S 16 km/h 12 km/h 54% 0 mm 766 W/m2
12:39 18 °C 9 °C 1017.95 hPa S 17 km/h 15 km/h 54% 0 mm 759 W/m2
12:44 18 °C 9 °C 1017.91 hPa S 18 km/h 17 km/h 54% 0 mm 784 W/m2
12:49 18 °C 9 °C 1017.91 hPa S 19 km/h 14 km/h 55% 0 mm 784 W/m2
12:54 18 °C 9 °C 1017.91 hPa S 16 km/h 14 km/h 55% 0 mm 788 W/m2
12:59 18 °C 9 °C 1017.91 hPa S 20 km/h 19 km/h 55% 0 mm 817 W/m2
13:04 18 °C 9 °C 1017.91 hPa S 19 km/h 18 km/h 55% 0 mm 759 W/m2
13:09 18 °C 9 °C 1017.91 hPa S 20 km/h 19 km/h 56% 0 mm 742 W/m2
13:14 18 °C 9 °C 1017.95 hPa S 21 km/h 20 km/h 55% 0 mm 629 W/m2
13:19 18 °C 9 °C 1017.95 hPa S 20 km/h 18 km/h 56% 0 mm 592 W/m2
13:24 18 °C 9 °C 1017.88 hPa S 20 km/h 16 km/h 58% 0 mm 587 W/m2
13:29 18 °C 10 °C 1017.91 hPa SSW 17 km/h 15 km/h 60% 0 mm 519 W/m2
13:34 18 °C 10 °C 1017.88 hPa SSW 17 km/h 14 km/h 61% 0 mm 517 W/m2
13:39 18 °C 10 °C 1017.85 hPa S 19 km/h 15 km/h 62% 0 mm 436 W/m2
13:44 18 °C 10 °C 1017.81 hPa SSW 21 km/h 17 km/h 61% 0 mm 432 W/m2
13:49 18 °C 10 °C 1017.85 hPa S 16 km/h 13 km/h 62% 0 mm 394 W/m2
13:54 18 °C 10 °C 1017.85 hPa S 21 km/h 16 km/h 61% 0 mm 380 W/m2
13:59 17 °C 10 °C 1017.78 hPa S 23 km/h 19 km/h 62% 0 mm 360 W/m2
14:04 17 °C 10 °C 1017.75 hPa SSW 20 km/h 19 km/h 64% 0 mm 343 W/m2
14:09 17 °C 11 °C 1017.68 hPa SSW 19 km/h 16 km/h 64% 0 mm 343 W/m2
14:14 17 °C 10 °C 1017.64 hPa SSW 21 km/h 18 km/h 62% 0 mm 322 W/m2
14:19 17 °C 10 °C 1017.64 hPa SSW 23 km/h 18 km/h 62% 0 mm 339 W/m2
14:24 17 °C 10 °C 1017.61 hPa SSW 25 km/h 19 km/h 63% 0 mm 348 W/m2
14:29 17 °C 10 °C 1017.61 hPa SSW 22 km/h 17 km/h 63% 0 mm 350 W/m2
14:34 17 °C 10 °C 1017.54 hPa SSW 21 km/h 18 km/h 61% 0 mm 350 W/m2
14:39 17 °C 9 °C 1017.54 hPa SSW 24 km/h 19 km/h 59% 0 mm 346 W/m2
14:44 17 °C 9 °C 1017.51 hPa SSW 20 km/h 19 km/h 60% 0 mm 343 W/m2
14:49 17 °C 9 °C 1017.51 hPa SSW 18 km/h 15 km/h 60% 0 mm 350 W/m2
14:54 17 °C 10 °C 1017.51 hPa SSW 17 km/h 14 km/h 60% 0 mm 364 W/m2
14:59 17 °C 9 °C 1017.47 hPa SSW 19 km/h 16 km/h 59% 0 mm 360 W/m2
15:04 17 °C 10 °C 1017.54 hPa SSW 15 km/h 13 km/h 60% 0 mm 371 W/m2
15:09 17 °C 9 °C 1017.54 hPa SSW 22 km/h 18 km/h 59% 0 mm 359 W/m2
15:14 17 °C 9 °C 1017.54 hPa SSW 24 km/h 17 km/h 58% 0 mm 348 W/m2
15:19 17 °C 9 °C 1017.47 hPa SSW 24 km/h 21 km/h 59% 0 mm 350 W/m2
15:24 17 °C 10 °C 1017.47 hPa SSW 21 km/h 19 km/h 62% 0 mm 346 W/m2
15:29 17 °C 10 °C 1017.47 hPa SSW 21 km/h 17 km/h 63% 0 mm 359 W/m2
15:34 17 °C 10 °C 1017.41 hPa SSW 19 km/h 15 km/h 63% 0 mm 364 W/m2
15:39 17 °C 10 °C 1017.41 hPa S 20 km/h 17 km/h 64% 0 mm 364 W/m2
15:44 17 °C 10 °C 1017.31 hPa S 15 km/h 13 km/h 64% 0 mm 369 W/m2
15:49 17 °C 10 °C 1017.27 hPa S 19 km/h 17 km/h 63% 0 mm 397 W/m2
15:54 17 °C 11 °C 1017.27 hPa S 17 km/h 14 km/h 65% 0 mm 422 W/m2
15:59 17 °C 11 °C 1017.27 hPa S 21 km/h 20 km/h 69% 0 mm 434 W/m2
16:04 17 °C 12 °C 1017.2 hPa S 20 km/h 19 km/h 72% 0 mm 434 W/m2
16:09 17 °C 13 °C 1017.24 hPa S 20 km/h 18 km/h 74% 0 mm 404 W/m2
16:14 17 °C 13 °C 1017.2 hPa S 22 km/h 20 km/h 77% 0 mm 387 W/m2
16:19 17 °C 13 °C 1017.2 hPa S 22 km/h 19 km/h 78% 0 mm 450 W/m2
16:24 17 °C 13 °C 1017.17 hPa S 19 km/h 15 km/h 79% 0 mm 496 W/m2
16:29 17 °C 14 °C 1017.14 hPa S 16 km/h 13 km/h 78% 0 mm 575 W/m2
16:34 17 °C 14 °C 1017.14 hPa S 17 km/h 16 km/h 77% 0 mm 506 W/m2
16:39 17 °C 13 °C 1017.1 hPa S 19 km/h 18 km/h 77% 0 mm 471 W/m2
16:44 17 °C 13 °C 1017.03 hPa S 19 km/h 17 km/h 78% 0 mm 464 W/m2
16:49 17 °C 13 °C 1016.97 hPa S 20 km/h 16 km/h 77% 0 mm 496 W/m2
16:54 17 °C 13 °C 1016.97 hPa SSW 22 km/h 16 km/h 76% 0 mm 461 W/m2
16:59 17 °C 13 °C 1016.97 hPa SSW 18 km/h 16 km/h 76% 0 mm 364 W/m2
17:04 17 °C 13 °C 1016.93 hPa SSW 21 km/h 16 km/h 75% 0 mm 283 W/m2
17:09 18 °C 13 °C 1016.83 hPa SSW 19 km/h 16 km/h 75% 0 mm 283 W/m2
17:14 18 °C 13 °C 1016.8 hPa S 16 km/h 12 km/h 73% 0 mm 271 W/m2
17:19 18 °C 13 °C 1016.86 hPa SSW 15 km/h 12 km/h 74% 0 mm 251 W/m2
17:24 18 °C 13 °C 1016.83 hPa S 16 km/h 13 km/h 75% 0 mm 272 W/m2
17:29 18 °C 13 °C 1016.73 hPa S 13 km/h 11 km/h 75% 0 mm 309 W/m2
17:34 18 °C 13 °C 1016.73 hPa S 12 km/h 10 km/h 75% 0 mm 332 W/m2
Compliments of Weather Underground - 2 mb